createdAt,value
2022-12-25T00:02:05.615Z,61.70
2022-12-25T00:05:08.907Z,61.48
2022-12-25T00:08:11.703Z,62.56
2022-12-25T00:11:17.194Z,62.79
2022-12-25T00:14:20.229Z,55.96
2022-12-25T00:17:23.137Z,54.53
2022-12-25T00:20:25.949Z,58.26
2022-12-25T00:23:29.348Z,60.47
2022-12-25T00:26:32.493Z,65.72
2022-12-25T00:29:35.519Z,67.04
2022-12-25T00:32:38.555Z,64.76
2022-12-25T00:35:41.515Z,64.84
2022-12-25T00:38:46.686Z,64.38
2022-12-25T00:42:08.242Z,65.53
2022-12-25T00:45:11.058Z,62.77
2022-12-25T00:48:13.883Z,59.49
2022-12-25T00:51:16.699Z,55.59
2022-12-25T00:54:19.921Z,57.62
2022-12-25T00:57:23.012Z,61.69
2022-12-25T01:00:25.872Z,66.92
2022-12-25T01:03:28.827Z,64.46
2022-12-25T01:06:32.503Z,61.30
2022-12-25T01:09:54.066Z,57.64
2022-12-25T01:12:57.013Z,58.94
2022-12-25T01:15:59.925Z,60.97
2022-12-25T01:19:03.787Z,65.77
2022-12-25T01:22:06.884Z,69.06
2022-12-25T01:25:10.767Z,62.83
2022-12-25T01:28:13.850Z,58.61
2022-12-25T01:31:18.912Z,57.52
2022-12-25T01:34:21.815Z,60.37
2022-12-25T01:37:25.603Z,68.01
2022-12-25T01:40:28.483Z,68.88
2022-12-25T01:43:33.732Z,59.41
2022-12-25T01:46:36.784Z,54.60
2022-12-25T01:49:42.556Z,57.64
2022-12-25T01:52:46.579Z,59.53
2022-12-25T01:55:54.622Z,65.31
2022-12-25T01:58:58.623Z,65.27
2022-12-25T02:02:01.877Z,63.59
2022-12-25T02:05:13.992Z,63.21
2022-12-25T02:08:20.616Z,63.86
2022-12-25T02:11:42.055Z,57.19
2022-12-25T02:14:46.094Z,55.03
2022-12-25T02:18:03.012Z,56.29
2022-12-25T02:22:00.456Z,60.36
2022-12-25T02:25:38.721Z,67.72
2022-12-25T02:28:47.670Z,64.45
2022-12-25T02:31:53.622Z,63.56
2022-12-25T02:35:03.176Z,63.10
2022-12-25T02:38:20.352Z,61.76
2022-12-25T02:41:23.338Z,61.76
2022-12-25T02:45:01.279Z,62.73
2022-12-25T02:48:24.033Z,61.01
2022-12-25T02:51:50.119Z,59.93
2022-12-25T02:55:18.550Z,57.83
2022-12-25T02:58:43.126Z,57.82
2022-12-25T03:02:05.331Z,59.13
2022-12-25T03:05:31.458Z,63.50
2022-12-25T03:08:41.606Z,68.19
2022-12-25T03:11:52.484Z,66.60
2022-12-25T03:15:13.988Z,62.51
2022-12-25T03:18:20.052Z,61.23
2022-12-25T03:21:41.654Z,57.39
2022-12-25T03:25:03.149Z,57.56
2022-12-25T03:28:06.627Z,59.52
2022-12-25T03:31:30.494Z,64.31
2022-12-25T03:35:12.526Z,65.80
2022-12-25T03:38:48.465Z,65.00
2022-12-25T03:42:17.046Z,65.47
2022-12-25T03:45:47.699Z,64.42
2022-12-25T03:49:17.252Z,64.01
2022-12-25T03:52:39.985Z,63.34
2022-12-25T03:56:02.582Z,57.14
2022-12-25T03:59:24.462Z,55.66
2022-12-25T04:02:46.509Z,57.79
2022-12-25T04:06:25.215Z,62.36
2022-12-25T04:09:47.003Z,63.36
2022-12-25T04:13:08.364Z,65.19
2022-12-25T04:16:30.003Z,64.30
2022-12-25T04:19:58.710Z,64.36
2022-12-25T04:23:20.364Z,64.39
2022-12-25T04:26:42.045Z,71.15
2022-12-25T04:30:11.038Z,67.17
2022-12-25T04:33:32.614Z,65.08
2022-12-25T04:36:35.423Z,64.69
2022-12-25T04:39:38.238Z,64.80
2022-12-25T04:42:42.318Z,64.67
2022-12-25T04:45:55.830Z,64.30
2022-12-25T04:48:58.656Z,64.43
2022-12-25T04:52:01.462Z,66.03
2022-12-25T04:55:05.305Z,65.89
2022-12-25T04:58:08.471Z,64.99
2022-12-25T05:01:12.660Z,65.99
2022-12-25T05:04:15.453Z,68.82
2022-12-25T05:07:18.261Z,67.76
2022-12-25T05:10:21.160Z,67.31
2022-12-25T05:13:24.939Z,68.67
2022-12-25T05:16:28.013Z,70.07
2022-12-25T05:19:31.857Z,67.74
2022-12-25T05:22:34.777Z,65.22
2022-12-25T05:25:41.126Z,64.01
2022-12-25T05:28:43.930Z,61.72
2022-12-25T05:31:46.881Z,61.00
2022-12-25T05:34:49.749Z,60.91
2022-12-25T05:37:52.589Z,60.40
2022-12-25T05:40:55.435Z,60.02
2022-12-25T05:43:58.259Z,57.89
2022-12-25T05:47:01.118Z,58.26
2022-12-25T05:50:05.135Z,61.26
2022-12-25T05:53:09.612Z,66.63
2022-12-25T05:56:12.642Z,67.09
2022-12-25T05:59:15.487Z,65.16
2022-12-25T06:02:18.417Z,64.52
2022-12-25T06:05:21.409Z,63.98
2022-12-25T06:08:24.309Z,63.64
2022-12-25T06:11:27.264Z,63.60
2022-12-25T06:14:30.130Z,63.48
2022-12-25T06:17:33.089Z,62.39
2022-12-25T06:20:36.029Z,60.91
2022-12-25T06:23:39.371Z,60.02
2022-12-25T06:26:42.596Z,59.55
2022-12-25T06:29:45.580Z,57.87
2022-12-25T06:32:48.697Z,58.10
2022-12-25T06:35:51.522Z,60.99
2022-12-25T06:38:54.524Z,67.18
2022-12-25T06:41:57.541Z,68.13
2022-12-25T06:45:00.383Z,65.15
2022-12-25T06:48:03.412Z,58.84
2022-12-25T06:51:07.349Z,55.00
2022-12-25T06:54:11.836Z,58.19
2022-12-25T06:57:14.716Z,61.27
2022-12-25T07:00:17.707Z,67.58
2022-12-25T07:03:22.278Z,68.63
2022-12-25T07:06:25.729Z,63.01
2022-12-25T07:09:28.603Z,60.24
2022-12-25T07:12:31.416Z,56.37
2022-12-25T07:15:34.303Z,58.29
2022-12-25T07:18:37.447Z,60.03
2022-12-25T07:21:40.347Z,67.23
2022-12-25T07:24:43.573Z,66.33
2022-12-25T07:27:46.535Z,65.63
2022-12-25T07:30:49.695Z,60.52
2022-12-25T07:33:55.839Z,57.16
2022-12-25T07:36:58.919Z,58.64
2022-12-25T07:40:02.322Z,61.71
2022-12-25T07:43:05.676Z,68.26
2022-12-25T07:46:09.726Z,69.47
2022-12-25T07:49:12.922Z,61.65
2022-12-25T07:52:16.068Z,54.62
2022-12-25T07:55:19.107Z,55.24
2022-12-25T07:58:23.595Z,58.34
2022-12-25T08:01:28.111Z,61.52
2022-12-25T08:04:31.776Z,67.98
2022-12-25T08:07:38.792Z,66.13
2022-12-25T08:10:46.651Z,58.73
2022-12-25T08:13:50.440Z,54.80
2022-12-25T08:16:53.926Z,57.07
2022-12-25T08:19:58.006Z,59.25
2022-12-25T08:23:02.244Z,61.62
2022-12-25T08:26:09.236Z,69.43
2022-12-25T08:29:13.577Z,64.56
2022-12-25T08:32:18.936Z,59.56
2022-12-25T08:35:28.275Z,56.31
2022-12-25T08:38:34.229Z,57.46
2022-12-25T08:41:39.112Z,59.29
2022-12-25T08:44:48.801Z,61.12
2022-12-25T08:47:57.800Z,67.41
2022-12-25T08:51:03.780Z,65.66
2022-12-25T08:54:06.708Z,61.53
2022-12-25T08:57:09.930Z,59.02
2022-12-25T09:00:13.367Z,56.62
2022-12-25T09:03:16.204Z,57.98
2022-12-25T09:06:19.050Z,59.76
2022-12-25T09:09:27.370Z,61.60
2022-12-25T09:12:30.178Z,67.17
2022-12-25T09:15:32.994Z,65.39
2022-12-25T09:18:36.036Z,61.76
2022-12-25T09:21:38.869Z,60.41
2022-12-25T09:24:43.825Z,58.74
2022-12-25T09:27:46.740Z,56.18
2022-12-25T09:30:53.234Z,57.67
2022-12-25T09:33:58.126Z,59.13
2022-12-25T09:37:02.003Z,60.62
2022-12-25T09:40:05.564Z,64.59
2022-12-25T09:43:16.789Z,65.50
2022-12-25T09:46:23.886Z,61.87
2022-12-25T09:49:47.260Z,60.43
2022-12-25T09:53:17.307Z,60.69
2022-12-25T09:56:27.101Z,56.24
2022-12-25T09:59:30.757Z,55.78
2022-12-25T10:02:48.316Z,57.14
2022-12-25T10:06:13.370Z,58.33
2022-12-25T10:09:27.517Z,59.91
2022-12-25T10:12:37.096Z,63.91
2022-12-25T10:16:03.193Z,64.37
2022-12-25T10:19:18.129Z,63.63
2022-12-25T10:22:38.030Z,62.71
2022-12-25T10:25:41.968Z,60.34
2022-12-25T10:28:47.889Z,57.49
2022-12-25T10:31:55.459Z,59.40
2022-12-25T10:34:58.368Z,61.07
2022-12-25T10:38:19.072Z,62.97
2022-12-25T10:41:59.805Z,61.40
2022-12-25T10:45:08.246Z,60.90
2022-12-25T10:48:25.933Z,57.98
2022-12-25T10:51:31.820Z,57.36
2022-12-25T10:54:36.113Z,58.95
2022-12-25T10:57:46.142Z,61.07
2022-12-25T11:00:54.567Z,65.21
2022-12-25T11:03:57.623Z,64.61
2022-12-25T11:07:18.627Z,63.44
2022-12-25T11:10:31.190Z,61.70
2022-12-25T11:13:47.777Z,62.00
2022-12-25T11:16:50.654Z,61.79
2022-12-25T11:19:59.424Z,61.38
2022-12-25T11:23:02.229Z,61.06
2022-12-25T11:26:07.879Z,59.86
2022-12-25T11:29:35.323Z,57.36
2022-12-25T11:32:43.592Z,58.91
2022-12-25T11:35:53.020Z,60.59
2022-12-25T11:38:57.394Z,63.96
2022-12-25T11:42:21.339Z,63.85
2022-12-25T11:45:27.039Z,62.10
2022-12-25T11:48:34.207Z,61.99
2022-12-25T11:51:42.306Z,61.25
2022-12-25T11:54:55.034Z,61.09
2022-12-25T11:58:04.890Z,59.49
2022-12-25T12:01:27.707Z,58.19
2022-12-25T12:04:42.693Z,59.61
2022-12-25T12:08:06.320Z,63.48
2022-12-25T12:11:20.703Z,64.16
2022-12-25T12:14:23.522Z,63.51
2022-12-25T12:17:26.680Z,61.22
2022-12-25T12:20:35.592Z,61.13
2022-12-25T12:24:10.788Z,61.62
2022-12-25T12:27:32.238Z,54.40
2022-12-25T12:30:35.721Z,55.77
2022-12-25T12:33:44.215Z,58.42
2022-12-25T12:36:47.063Z,61.10
2022-12-25T12:39:54.225Z,63.92
2022-12-25T12:42:57.090Z,63.45
2022-12-25T12:46:16.192Z,62.89
2022-12-25T12:49:28.491Z,62.83
2022-12-25T12:52:38.995Z,62.66
2022-12-25T12:55:42.039Z,64.25
2022-12-25T12:58:51.124Z,62.46
2022-12-25T13:02:11.135Z,57.47
2022-12-25T13:05:41.378Z,55.25
2022-12-25T13:09:05.125Z,58.50
2022-12-25T13:12:08.917Z,60.39
2022-12-25T13:15:14.043Z,66.36
2022-12-25T13:18:17.558Z,64.83
2022-12-25T13:21:26.917Z,56.33
2022-12-25T13:24:32.602Z,54.13
2022-12-25T13:27:35.557Z,55.45
2022-12-25T13:30:38.435Z,58.09
2022-12-25T13:33:45.662Z,59.27
2022-12-25T13:36:48.672Z,61.11
2022-12-25T13:39:55.159Z,66.49
2022-12-25T13:43:01.920Z,64.90
2022-12-25T13:46:05.545Z,61.89
2022-12-25T13:49:17.949Z,61.79
2022-12-25T13:52:28.656Z,61.31
2022-12-25T13:55:33.851Z,61.75
2022-12-25T13:58:37.465Z,61.15
2022-12-25T14:01:45.097Z,61.45
2022-12-25T14:04:48.123Z,61.34
2022-12-25T14:07:53.546Z,60.91
2022-12-25T14:10:57.516Z,59.99
2022-12-25T14:14:04.254Z,60.52
2022-12-25T14:17:07.243Z,61.16
2022-12-25T14:20:26.209Z,60.66
2022-12-25T14:23:43.393Z,59.36
2022-12-25T14:26:46.295Z,56.55
2022-12-25T14:29:51.899Z,58.48
2022-12-25T14:32:56.007Z,59.72
2022-12-25T14:35:59.276Z,61.73
2022-12-25T14:39:05.840Z,66.15
2022-12-25T14:42:23.859Z,66.72
2022-12-25T14:45:35.002Z,65.78
2022-12-25T14:48:37.782Z,63.90
2022-12-25T14:51:43.142Z,65.25
2022-12-25T14:54:49.134Z,66.56
2022-12-25T14:57:57.176Z,64.52
2022-12-25T15:01:02.932Z,60.91
2022-12-25T15:04:13.358Z,57.42
2022-12-25T15:07:30.846Z,56.48
2022-12-25T15:13:57.774Z,66.32
2022-12-25T15:17:01.695Z,66.69
2022-12-25T15:20:05.583Z,60.51
2022-12-25T15:23:20.083Z,55.07
2022-12-25T15:26:24.293Z,56.32
2022-12-25T15:30:00.160Z,60.01
2022-12-25T15:32:50.328Z,64.68
2022-12-25T15:35:53.175Z,65.19
2022-12-25T15:38:56.843Z,63.92
2022-12-25T15:42:12.762Z,64.82
2022-12-25T15:45:25.717Z,63.46
2022-12-25T15:48:28.809Z,60.06
2022-12-25T15:51:32.026Z,56.99
2022-12-25T15:54:34.915Z,57.44
2022-12-25T15:57:41.081Z,60.53
2022-12-25T16:00:51.656Z,65.57
2022-12-25T16:03:54.670Z,66.37
2022-12-25T16:06:58.159Z,63.50
2022-12-25T16:10:01.067Z,60.34
2022-12-25T16:13:04.161Z,57.71
2022-12-25T16:16:07.424Z,60.30
2022-12-25T16:19:10.285Z,64.69
2022-12-25T16:22:18.412Z,66.14
2022-12-25T16:25:21.360Z,62.32
2022-12-25T16:28:24.267Z,57.20
2022-12-25T16:31:27.188Z,58.56
2022-12-25T16:34:30.020Z,60.98
2022-12-25T16:37:32.848Z,63.50
2022-12-25T16:40:35.793Z,65.82
2022-12-25T16:43:38.591Z,63.78
2022-12-25T16:46:41.481Z,63.41
2022-12-25T16:49:44.362Z,63.33
2022-12-25T16:52:47.218Z,64.92
2022-12-25T16:55:50.156Z,65.23
2022-12-25T16:58:53.027Z,64.75
2022-12-25T17:01:55.948Z,64.61
2022-12-25T17:05:00.674Z,64.39
2022-12-25T17:08:03.715Z,64.15
2022-12-25T17:11:06.766Z,64.05
2022-12-25T17:14:10.752Z,64.21
2022-12-25T17:17:13.698Z,63.74
2022-12-25T17:20:16.650Z,63.53
2022-12-25T17:23:20.940Z,63.38
2022-12-25T17:26:25.041Z,63.33
2022-12-25T17:29:27.965Z,63.21
2022-12-25T17:32:31.012Z,62.81
2022-12-25T17:35:37.187Z,62.51
2022-12-25T17:38:40.547Z,62.53
2022-12-25T17:41:43.358Z,62.35
2022-12-25T17:44:46.451Z,62.15
2022-12-25T17:47:49.287Z,61.77
2022-12-25T17:50:52.112Z,61.43
2022-12-25T17:53:57.334Z,61.62
2022-12-25T17:57:00.115Z,61.57
2022-12-25T18:00:03.352Z,61.52
2022-12-25T18:03:11.558Z,61.32
2022-12-25T18:06:18.696Z,61.70
2022-12-25T18:09:21.775Z,60.88
2022-12-25T18:12:24.616Z,61.13
2022-12-25T18:15:27.510Z,61.30
2022-12-25T18:18:31.212Z,60.97
2022-12-25T18:21:34.571Z,62.20
2022-12-25T18:24:37.949Z,62.29
2022-12-25T18:27:40.848Z,62.86
2022-12-25T18:30:45.196Z,63.72
2022-12-25T18:33:48.297Z,64.31
2022-12-25T18:36:51.109Z,64.17
2022-12-25T18:39:54.036Z,63.93
2022-12-25T18:43:02.997Z,62.79
2022-12-25T18:46:06.908Z,63.25
2022-12-25T18:49:11.146Z,62.53
2022-12-25T18:52:48.868Z,63.33
2022-12-25T18:55:40.773Z,63.57
2022-12-25T18:58:43.839Z,64.36
2022-12-25T19:01:46.927Z,65.06
2022-12-25T19:04:49.936Z,65.29
2022-12-25T19:07:53.111Z,65.48
2022-12-25T19:10:56.265Z,65.61
2022-12-25T19:13:59.239Z,65.75
2022-12-25T19:17:04.963Z,65.91
2022-12-25T19:20:08.589Z,66.03
2022-12-25T19:23:11.404Z,66.23
2022-12-25T19:26:14.269Z,65.03
2022-12-25T19:29:17.555Z,63.72
2022-12-25T19:32:20.627Z,62.86
2022-12-25T19:35:23.677Z,61.18
2022-12-25T19:38:26.559Z,60.03
2022-12-25T19:41:29.452Z,59.24
2022-12-25T19:44:32.333Z,60.94
2022-12-25T19:47:35.158Z,63.66
2022-12-25T19:50:38.021Z,64.08
2022-12-25T19:53:40.851Z,64.38
2022-12-25T19:56:43.794Z,64.71
2022-12-25T19:59:46.614Z,63.90
2022-12-25T20:02:49.605Z,62.73
2022-12-25T20:05:56.757Z,60.25
2022-12-25T20:09:09.281Z,56.64
2022-12-25T20:12:14.855Z,59.71
2022-12-25T20:15:22.795Z,63.02
2022-12-25T20:18:25.723Z,63.03
2022-12-25T20:21:30.139Z,57.82
2022-12-25T20:24:33.075Z,58.73
2022-12-25T20:27:36.142Z,62.41
2022-12-25T20:30:40.191Z,63.03
2022-12-25T20:33:43.907Z,62.15
2022-12-25T20:36:46.784Z,58.48
2022-12-25T20:39:49.604Z,58.13
2022-12-25T20:42:52.399Z,61.24
2022-12-25T20:45:55.576Z,64.10
2022-12-25T20:48:58.708Z,60.23
2022-12-25T20:52:05.365Z,57.71
2022-12-25T20:55:08.770Z,59.77
2022-12-25T20:58:11.899Z,62.73
2022-12-25T21:01:18.081Z,63.75
2022-12-25T21:04:21.484Z,62.00
2022-12-25T21:07:24.289Z,60.44
2022-12-25T21:10:27.483Z,60.19
2022-12-25T21:13:36.486Z,60.40
2022-12-25T21:16:39.393Z,60.73
2022-12-25T21:19:42.302Z,61.26
2022-12-25T21:22:45.215Z,62.11
2022-12-25T21:25:48.905Z,62.38
2022-12-25T21:28:55.102Z,63.12
2022-12-25T21:32:16.836Z,63.09
2022-12-25T21:35:19.617Z,63.03
2022-12-25T21:38:22.501Z,61.68
2022-12-25T21:41:26.664Z,61.30
2022-12-25T21:44:29.456Z,61.37
2022-12-25T21:48:00.419Z,61.80
2022-12-25T21:51:14.034Z,61.45
2022-12-25T21:54:19.483Z,61.46
2022-12-25T21:57:22.323Z,61.89
2022-12-25T22:00:25.133Z,62.30
2022-12-25T22:03:28.154Z,62.47
2022-12-25T22:06:50.544Z,62.83
2022-12-25T22:09:53.502Z,63.65
2022-12-25T22:13:14.786Z,63.88
2022-12-25T22:16:36.374Z,64.27
2022-12-25T22:19:45.452Z,64.96
2022-12-25T22:22:48.525Z,64.97
2022-12-25T22:25:51.328Z,64.88
2022-12-25T22:28:54.166Z,64.94
2022-12-25T22:31:56.946Z,65.03
2022-12-25T22:35:00.628Z,65.06
2022-12-25T22:38:03.469Z,65.50
2022-12-25T22:41:07.044Z,66.10
2022-12-25T22:44:18.252Z,66.45
2022-12-25T22:47:21.965Z,66.45
2022-12-25T22:50:24.804Z,65.90
2022-12-25T22:53:27.611Z,65.63
2022-12-25T22:56:30.473Z,65.59
2022-12-25T22:59:33.398Z,66.12
2022-12-25T23:02:36.568Z,66.36
2022-12-25T23:05:39.756Z,67.05
2022-12-25T23:08:42.665Z,67.78
2022-12-25T23:11:45.908Z,67.54
2022-12-25T23:14:48.715Z,67.23
2022-12-25T23:18:10.254Z,67.50
2022-12-25T23:21:34.731Z,67.69
2022-12-25T23:24:56.478Z,68.00
2022-12-25T23:27:59.297Z,68.30
2022-12-25T23:31:02.948Z,68.41
2022-12-25T23:34:06.959Z,68.75
2022-12-25T23:37:10.808Z,68.80
2022-12-25T23:40:13.605Z,68.87
2022-12-25T23:43:16.385Z,69.02
2022-12-25T23:46:19.831Z,69.31
2022-12-25T23:49:24.729Z,69.18
2022-12-25T23:52:27.604Z,69.23
2022-12-25T23:55:30.378Z,69.25
2022-12-25T23:58:33.228Z,69.08
